createdAt,value
2023-03-21T00:00:48.236Z,12.45
2023-03-21T00:03:18.145Z,14.43
2023-03-21T00:05:50.141Z,14.50
2023-03-21T00:08:21.303Z,11.65
2023-03-21T00:11:02.412Z,10.48
2023-03-21T00:13:33.318Z,15.83
2023-03-21T00:16:18.746Z,17.10
2023-03-21T00:18:52.790Z,14.68
2023-03-21T00:21:55.277Z,14.05
2023-03-21T00:24:04.125Z,14.35
2023-03-21T00:26:34.508Z,11.97
2023-03-21T00:29:04.741Z,12.43
2023-03-21T00:31:34.246Z,15.73
2023-03-21T00:34:03.682Z,16.20
2023-03-21T00:36:34.306Z,15.10
2023-03-21T00:39:05.530Z,16.32
2023-03-21T00:41:42.534Z,13.73
2023-03-21T00:44:07.010Z,14.45
2023-03-21T00:46:45.463Z,15.53
2023-03-21T00:49:08.677Z,15.53
2023-03-21T00:51:38.107Z,13.90
2023-03-21T00:54:08.212Z,11.50
2023-03-21T00:56:37.639Z,14.43
2023-03-21T00:59:07.154Z,12.78
2023-03-21T01:01:38.443Z,12.57
2023-03-21T01:04:11.198Z,10.32
2023-03-21T01:06:42.780Z,12.33
2023-03-21T01:09:17.993Z,11.40
2023-03-21T01:11:48.520Z,11.35
2023-03-21T01:14:22.895Z,11.43
2023-03-21T01:16:53.670Z,12.65
2023-03-21T01:22:00.251Z,14.03
2023-03-21T01:24:29.952Z,9.75
2023-03-21T01:26:59.996Z,9.68
2023-03-21T01:29:29.627Z,7.80
2023-03-21T01:31:59.678Z,12.20
2023-03-21T01:34:29.988Z,10.98
2023-03-21T01:36:59.664Z,13.58
2023-03-21T01:39:29.194Z,10.23
2023-03-21T01:41:58.617Z,10.03
2023-03-21T01:44:30.914Z,10.95
2023-03-21T01:47:10.326Z,10.48
2023-03-21T01:49:46.495Z,17.23
2023-03-21T01:52:35.391Z,8.25
2023-03-21T01:55:14.107Z,11.15
2023-03-21T01:58:04.697Z,11.97
2023-03-21T02:00:29.522Z,13.83
2023-03-21T02:03:13.838Z,11.20
2023-03-21T02:05:51.404Z,10.23
2023-03-21T02:08:30.502Z,10.72
2023-03-21T02:10:55.447Z,8.30
2023-03-21T02:13:26.658Z,10.98
2023-03-21T02:16:04.987Z,8.60
2023-03-21T02:18:42.138Z,10.25
2023-03-21T02:21:20.684Z,8.20
2023-03-21T02:24:31.127Z,8.65
2023-03-21T02:27:16.640Z,8.18
2023-03-21T02:30:29.471Z,10.38
2023-03-21T02:33:26.304Z,8.15
2023-03-21T02:36:19.904Z,10.60
2023-03-21T02:39:12.228Z,8.10
2023-03-21T02:41:53.630Z,9.73
2023-03-21T02:44:27.856Z,10.78
2023-03-21T02:49:32.711Z,11.88
2023-03-21T02:52:15.510Z,11.83
2023-03-21T02:54:48.392Z,9.35
2023-03-21T02:57:13.785Z,9.80
2023-03-21T02:59:53.792Z,10.20
2023-03-21T03:02:19.469Z,8.55
2023-03-21T03:04:49.670Z,8.68
2023-03-21T03:07:34.233Z,12.15
2023-03-21T03:10:26.238Z,7.85
2023-03-21T03:13:04.243Z,8.83
2023-03-21T03:15:39.466Z,10.95
2023-03-21T03:18:24.629Z,9.65
2023-03-21T03:21:01.513Z,9.70
2023-03-21T03:25:49.164Z,10.05
2023-03-21T03:28:22.109Z,9.18
2023-03-21T03:31:08.017Z,8.88
2023-03-21T03:33:28.666Z,10.58
2023-03-21T03:36:05.482Z,10.95
2023-03-21T03:38:34.137Z,11.28
2023-03-21T03:41:12.810Z,10.65
2023-03-21T03:43:48.761Z,9.28
2023-03-21T03:46:21.266Z,10.95
2023-03-21T03:51:27.799Z,9.85
2023-03-21T03:54:14.268Z,12.00
2023-03-21T03:56:45.870Z,12.43
2023-03-21T03:59:25.040Z,13.62
2023-03-21T04:02:02.022Z,8.70
2023-03-21T04:04:32.697Z,13.85
2023-03-21T04:07:03.548Z,8.53
2023-03-21T04:09:43.593Z,9.08
2023-03-21T04:12:05.228Z,9.73
2023-03-21T04:14:44.560Z,9.57
2023-03-21T04:17:07.274Z,9.58
2023-03-21T04:19:37.480Z,13.00
2023-03-21T04:22:07.951Z,9.33
2023-03-21T04:24:41.037Z,8.70
2023-03-21T04:27:11.395Z,9.03
2023-03-21T04:29:43.575Z,9.97
2023-03-21T04:32:27.750Z,9.70
2023-03-21T04:34:58.959Z,13.13
2023-03-21T04:37:29.551Z,10.13
2023-03-21T04:39:59.006Z,11.00
2023-03-21T04:42:29.110Z,9.08
2023-03-21T04:44:58.606Z,11.08
2023-03-21T04:47:29.219Z,8.95
2023-03-21T04:49:58.697Z,9.78
2023-03-21T04:52:28.197Z,13.88
2023-03-21T04:54:59.401Z,10.25
2023-03-21T04:57:29.577Z,10.55
2023-03-21T05:00:01.114Z,13.60
2023-03-21T05:02:31.292Z,13.25
2023-03-21T05:05:01.289Z,12.40
2023-03-21T05:07:32.966Z,11.75
2023-03-21T05:10:05.672Z,14.87
2023-03-21T05:12:35.834Z,10.45
2023-03-21T05:15:06.525Z,9.60
2023-03-21T05:17:36.632Z,13.53
2023-03-21T05:20:08.581Z,14.47
2023-03-21T05:22:39.804Z,9.65
2023-03-21T05:25:13.499Z,9.75
2023-03-21T05:27:49.591Z,8.58
2023-03-21T05:30:39.626Z,13.25
2023-03-21T05:33:09.103Z,11.68
2023-03-21T05:35:39.946Z,10.92
2023-03-21T05:38:10.850Z,10.82
2023-03-21T05:40:42.118Z,11.53
2023-03-21T05:43:11.707Z,12.78
2023-03-21T05:45:42.580Z,11.93
2023-03-21T05:48:12.301Z,9.38
2023-03-21T05:50:43.701Z,9.75
2023-03-21T05:53:14.861Z,9.48
2023-03-21T05:55:44.386Z,10.55
2023-03-21T05:58:15.574Z,12.20
2023-03-21T06:00:47.799Z,11.40
2023-03-21T06:03:21.942Z,12.73
2023-03-21T06:06:04.197Z,12.30
2023-03-21T06:08:38.682Z,10.74
2023-03-21T06:11:11.391Z,14.18
2023-03-21T06:13:40.990Z,14.20
2023-03-21T06:16:10.666Z,13.43
2023-03-21T06:18:40.750Z,13.15
2023-03-21T06:21:20.762Z,9.90
2023-03-21T06:23:52.786Z,11.73
2023-03-21T06:26:23.660Z,14.33
2023-03-21T06:28:56.591Z,11.55
2023-03-21T06:31:26.762Z,14.00
2023-03-21T06:33:58.614Z,13.80
2023-03-21T06:36:28.554Z,13.38
2023-03-21T06:38:58.720Z,14.77
2023-03-21T06:41:28.774Z,14.00
2023-03-21T06:44:01.396Z,13.73
2023-03-21T06:46:32.608Z,20.23
2023-03-21T06:49:02.661Z,15.93
2023-03-21T06:51:32.112Z,14.98
2023-03-21T06:54:06.260Z,12.60
2023-03-21T06:56:44.297Z,14.00
2023-03-21T06:59:14.612Z,13.22
2023-03-21T07:01:48.821Z,13.35
2023-03-21T07:04:18.730Z,14.35
2023-03-21T07:06:48.605Z,16.50
2023-03-21T07:09:21.131Z,16.05
2023-03-21T07:11:52.453Z,19.50
2023-03-21T07:16:53.312Z,16.23
2023-03-21T07:19:23.678Z,18.25
2023-03-21T07:21:54.408Z,20.72
2023-03-21T07:24:23.836Z,15.53
2023-03-21T07:26:53.809Z,21.95
2023-03-21T07:29:23.303Z,13.58
2023-03-21T07:31:52.752Z,17.10
2023-03-21T07:34:24.397Z,13.28
2023-03-21T07:36:53.930Z,10.28
2023-03-21T07:39:23.821Z,11.12
2023-03-21T07:41:56.316Z,16.23
2023-03-21T07:44:27.906Z,11.50
2023-03-21T07:46:59.368Z,17.52
2023-03-21T07:49:28.786Z,14.18
2023-03-21T07:51:59.736Z,12.00
2023-03-21T07:54:29.660Z,13.05
2023-03-21T07:56:59.364Z,14.05
2023-03-21T07:59:29.153Z,12.40
2023-03-21T08:01:58.637Z,13.62
2023-03-21T08:04:28.113Z,10.82
2023-03-21T08:06:57.717Z,12.15
2023-03-21T08:09:27.132Z,21.65
2023-03-21T08:11:56.566Z,15.75
2023-03-21T08:14:26.084Z,16.32
2023-03-21T08:16:55.694Z,15.13
2023-03-21T08:19:26.842Z,9.40
2023-03-21T08:21:57.908Z,13.48
2023-03-21T08:24:28.647Z,11.12
2023-03-21T08:26:58.441Z,13.35
2023-03-21T08:29:29.945Z,14.30
2023-03-21T08:31:59.370Z,10.48
2023-03-21T08:34:28.813Z,16.50
2023-03-21T08:36:58.493Z,10.58
2023-03-21T08:39:28.463Z,9.93
2023-03-21T08:41:58.024Z,14.35
2023-03-21T08:44:27.466Z,10.48
2023-03-21T08:46:57.631Z,10.68
2023-03-21T08:49:27.836Z,9.55
2023-03-21T08:51:57.860Z,13.75
2023-03-21T08:54:27.661Z,17.30
2023-03-21T08:56:57.489Z,17.98
2023-03-21T08:59:27.092Z,12.90
2023-03-21T09:01:57.660Z,13.45
2023-03-21T09:04:27.159Z,13.48
2023-03-21T09:06:57.582Z,11.08
2023-03-21T09:09:27.873Z,10.48
2023-03-21T09:11:57.543Z,13.40
2023-03-21T09:14:29.149Z,10.85
2023-03-21T09:16:59.158Z,14.13
2023-03-21T09:19:30.413Z,12.18
2023-03-21T09:22:00.531Z,14.78
2023-03-21T09:24:30.014Z,7.45
2023-03-21T09:26:59.541Z,10.78
2023-03-21T09:29:29.504Z,13.95
2023-03-21T09:32:02.272Z,12.53
2023-03-21T09:34:32.438Z,11.05
2023-03-21T09:37:02.470Z,11.33
2023-03-21T09:39:32.885Z,13.83
2023-03-21T09:42:28.336Z,12.23
2023-03-21T09:45:05.675Z,9.38
2023-03-21T09:47:42.695Z,10.98
2023-03-21T09:50:22.485Z,14.07
2023-03-21T09:53:05.654Z,16.23
2023-03-21T09:55:38.918Z,9.03
2023-03-21T09:58:28.612Z,12.88
2023-03-21T10:01:09.352Z,10.38
2023-03-21T10:03:39.445Z,10.98
2023-03-21T10:06:13.201Z,8.58
2023-03-21T10:08:44.709Z,16.93
2023-03-21T10:11:18.459Z,14.77
2023-03-21T10:13:59.902Z,14.15
2023-03-21T10:16:57.300Z,10.15
2023-03-21T10:19:29.696Z,9.63
2023-03-21T10:22:01.820Z,11.93
2023-03-21T10:24:32.729Z,9.43
2023-03-21T10:27:04.953Z,10.55
2023-03-21T10:29:46.387Z,11.60
2023-03-21T10:32:18.693Z,10.38
2023-03-21T10:34:58.502Z,10.20
2023-03-21T10:37:29.218Z,9.08
2023-03-21T10:39:58.684Z,8.60
2023-03-21T10:42:32.392Z,13.70
2023-03-21T10:45:02.084Z,9.25
2023-03-21T10:47:35.688Z,9.53
2023-03-21T10:50:13.839Z,9.90
2023-03-21T10:52:49.557Z,13.48
2023-03-21T10:55:28.956Z,10.23
2023-03-21T10:58:02.002Z,17.23
2023-03-21T11:03:03.864Z,8.85
2023-03-21T11:05:41.320Z,10.40
2023-03-21T11:08:16.841Z,12.33
2023-03-21T11:11:10.027Z,8.18
2023-03-21T11:13:46.443Z,10.38
2023-03-21T11:16:25.659Z,10.10
2023-03-21T11:18:58.202Z,5.90
2023-03-21T11:21:29.784Z,8.75
2023-03-21T11:23:59.477Z,11.30
2023-03-21T11:26:37.913Z,5.90
2023-03-21T11:29:13.284Z,6.12
2023-03-21T11:31:45.198Z,6.28
2023-03-21T11:34:29.480Z,6.10
2023-03-21T11:37:03.374Z,7.58
2023-03-21T11:42:09.816Z,6.85
2023-03-21T11:44:45.476Z,6.83
2023-03-21T11:47:15.242Z,7.10
2023-03-21T11:49:45.133Z,5.28
2023-03-21T11:52:26.393Z,10.23
2023-03-21T11:55:04.742Z,6.97
2023-03-21T11:57:40.496Z,5.40
2023-03-21T12:00:14.664Z,5.55
2023-03-21T12:02:48.656Z,8.23
2023-03-21T12:05:24.152Z,7.78
2023-03-21T12:08:03.599Z,8.45
2023-03-21T12:10:38.898Z,8.15
2023-03-21T12:13:32.696Z,7.58
2023-03-21T12:16:42.768Z,13.77
2023-03-21T12:19:27.243Z,14.78
2023-03-21T12:22:32.807Z,6.67
2023-03-21T12:25:08.830Z,7.90
2023-03-21T12:27:47.408Z,9.68
2023-03-21T12:30:40.960Z,8.63
2023-03-21T12:33:37.906Z,10.93
2023-03-21T12:36:31.171Z,7.72
2023-03-21T12:39:28.378Z,5.40
2023-03-21T12:42:01.354Z,8.25
2023-03-21T12:47:22.464Z,6.75
2023-03-21T12:50:01.733Z,6.62
2023-03-21T12:55:02.311Z,5.70
2023-03-21T12:57:40.131Z,5.05
2023-03-21T13:00:30.833Z,7.28
2023-03-21T13:03:09.161Z,8.08
2023-03-21T13:05:59.454Z,9.03
2023-03-21T13:08:47.069Z,3.08
2023-03-21T13:11:22.944Z,3.67
2023-03-21T13:14:28.076Z,3.17
2023-03-21T13:17:09.497Z,3.58
2023-03-21T13:19:48.164Z,7.03
2023-03-21T13:22:26.945Z,6.30
2023-03-21T13:25:05.432Z,6.10
2023-03-21T13:27:42.821Z,3.98
2023-03-21T13:30:27.146Z,7.90
2023-03-21T13:33:14.890Z,3.55
2023-03-21T13:35:46.862Z,4.33
2023-03-21T13:38:25.602Z,3.30
2023-03-21T13:41:03.927Z,3.70
2023-03-21T13:43:37.348Z,2.65
2023-03-21T13:46:10.279Z,4.90
2023-03-21T13:48:59.183Z,1.98
2023-03-21T13:51:44.250Z,2.00
2023-03-21T13:54:27.766Z,11.75
2023-03-21T13:57:02.592Z,3.33
2023-03-21T13:59:41.708Z,2.47
2023-03-21T14:02:36.277Z,2.90
2023-03-21T14:05:12.611Z,3.58
2023-03-21T14:07:45.084Z,4.37
2023-03-21T14:10:39.124Z,2.70
2023-03-21T14:13:10.865Z,4.30
2023-03-21T14:15:56.242Z,4.78
2023-03-21T14:18:35.282Z,4.35
2023-03-21T14:21:02.348Z,4.45
2023-03-21T14:23:32.699Z,8.98
2023-03-21T14:26:04.630Z,5.50
2023-03-21T14:28:36.172Z,2.58
2023-03-21T14:31:07.489Z,3.12
2023-03-21T14:33:41.401Z,4.67
2023-03-21T14:36:20.254Z,3.65
2023-03-21T14:38:58.762Z,3.25
2023-03-21T14:41:30.501Z,3.42
2023-03-21T14:44:19.622Z,4.17
2023-03-21T14:46:49.809Z,1.70
2023-03-21T14:49:29.382Z,2.62
2023-03-21T14:52:06.635Z,1.80
2023-03-21T14:54:37.371Z,4.15
2023-03-21T14:57:13.108Z,2.40
2023-03-21T14:59:43.581Z,2.20
2023-03-21T15:02:22.181Z,2.55
2023-03-21T15:04:54.368Z,3.45
2023-03-21T15:07:27.300Z,1.80
2023-03-21T15:12:26.872Z,2.42
2023-03-21T15:14:57.502Z,4.10
2023-03-21T15:17:29.239Z,3.05
2023-03-21T15:19:59.160Z,3.15
2023-03-21T15:22:37.435Z,3.12
2023-03-21T15:25:10.382Z,5.65
2023-03-21T15:30:22.763Z,3.25
2023-03-21T15:32:52.620Z,6.78
2023-03-21T15:35:25.380Z,6.00
2023-03-21T15:37:58.889Z,4.78
2023-03-21T15:40:31.321Z,4.50
2023-03-21T15:43:09.686Z,3.67
2023-03-21T15:45:54.611Z,4.33
2023-03-21T15:48:29.728Z,7.62
2023-03-21T15:51:08.440Z,5.62
2023-03-21T15:53:42.090Z,3.85
2023-03-21T15:56:14.067Z,7.22
2023-03-21T15:58:45.903Z,4.12
2023-03-21T16:01:22.472Z,5.17
2023-03-21T16:04:00.426Z,6.70
2023-03-21T16:06:40.614Z,2.87
2023-03-21T16:09:17.446Z,4.25
2023-03-21T16:11:51.463Z,5.58
2023-03-21T16:14:22.039Z,3.85
2023-03-21T16:16:53.315Z,2.37
2023-03-21T16:19:24.840Z,2.42
2023-03-21T16:21:54.266Z,3.85
2023-03-21T16:24:23.689Z,3.02
2023-03-21T16:26:53.746Z,3.40
2023-03-21T16:29:24.394Z,4.83
2023-03-21T16:31:53.916Z,5.87
2023-03-21T16:34:23.605Z,3.40
2023-03-21T16:36:53.049Z,2.47
2023-03-21T16:39:26.412Z,2.67
2023-03-21T16:41:55.956Z,3.33
2023-03-21T16:44:25.392Z,3.43
2023-03-21T16:46:54.888Z,4.12
2023-03-21T16:49:28.406Z,2.67
2023-03-21T16:51:58.401Z,6.08
2023-03-21T16:54:28.158Z,5.15
2023-03-21T16:56:59.870Z,4.12
2023-03-21T16:59:29.446Z,4.83
2023-03-21T17:01:58.848Z,2.62
2023-03-21T17:04:28.535Z,5.20
2023-03-21T17:06:57.948Z,5.75
2023-03-21T17:09:28.546Z,6.12
2023-03-21T17:11:59.103Z,4.12
2023-03-21T17:14:28.635Z,6.37
2023-03-21T17:16:58.501Z,4.70
2023-03-21T17:19:28.052Z,7.65
2023-03-21T17:21:57.510Z,4.87
2023-03-21T17:24:28.852Z,5.20
2023-03-21T17:26:58.726Z,5.62
2023-03-21T17:29:28.330Z,4.00
2023-03-21T17:31:58.056Z,7.10
2023-03-21T17:34:27.560Z,4.42
2023-03-21T17:36:57.364Z,4.53
2023-03-21T17:39:28.879Z,4.62
2023-03-21T17:41:58.494Z,6.72
2023-03-21T17:44:27.940Z,5.45
2023-03-21T17:46:58.701Z,5.62
2023-03-21T17:49:28.295Z,3.67
2023-03-21T17:52:00.850Z,4.05
2023-03-21T17:54:30.698Z,7.37
2023-03-21T17:57:00.697Z,6.03
2023-03-21T17:59:30.513Z,5.00
2023-03-21T18:02:00.141Z,5.03
2023-03-21T18:04:29.673Z,7.00
2023-03-21T18:07:01.440Z,6.72
2023-03-21T18:09:31.245Z,6.15
2023-03-21T18:12:00.675Z,6.67
2023-03-21T18:14:31.049Z,4.47
2023-03-21T18:17:00.629Z,4.50
2023-03-21T18:19:31.392Z,9.05
2023-03-21T18:22:02.058Z,5.75
2023-03-21T18:24:34.890Z,3.50
2023-03-21T18:27:06.057Z,5.28
2023-03-21T18:32:09.279Z,5.12
2023-03-21T18:34:40.392Z,4.30
2023-03-21T18:37:13.333Z,4.35
2023-03-21T18:39:43.900Z,3.90
2023-03-21T18:42:20.437Z,4.10
2023-03-21T18:44:47.909Z,5.05
2023-03-21T18:47:18.795Z,7.67
2023-03-21T18:52:19.327Z,9.38
2023-03-21T18:54:49.718Z,3.85
2023-03-21T18:57:37.448Z,8.28
2023-03-21T18:59:50.580Z,6.83
2023-03-21T19:02:22.625Z,5.45
2023-03-21T19:04:52.637Z,6.87
2023-03-21T19:07:22.123Z,5.95
2023-03-21T19:10:15.393Z,6.62
2023-03-21T19:12:23.170Z,10.70
2023-03-21T19:14:52.673Z,7.30
2023-03-21T19:18:23.281Z,8.93
2023-03-21T19:19:54.603Z,8.03
2023-03-21T19:22:24.034Z,9.48
2023-03-21T19:24:54.067Z,11.63
2023-03-21T19:27:23.667Z,13.97
2023-03-21T19:30:10.793Z,16.50
2023-03-21T19:32:26.286Z,14.50
2023-03-21T19:34:56.460Z,17.62
2023-03-21T19:37:27.392Z,14.75
2023-03-21T19:39:57.362Z,16.15
2023-03-21T19:42:29.310Z,13.56
2023-03-21T19:44:59.292Z,14.03
2023-03-21T19:47:28.788Z,14.35
2023-03-21T19:52:29.648Z,22.05
2023-03-21T19:54:59.215Z,21.40
2023-03-21T19:57:28.765Z,19.67
2023-03-21T19:59:58.565Z,23.10
2023-03-21T20:02:36.970Z,20.48
2023-03-21T20:04:59.516Z,26.33
2023-03-21T20:07:30.813Z,24.05
2023-03-21T20:10:00.840Z,21.47
2023-03-21T20:12:31.973Z,20.88
2023-03-21T20:15:16.382Z,25.82
2023-03-21T20:17:35.062Z,21.73
2023-03-21T20:20:12.428Z,19.80
2023-03-21T20:23:06.722Z,21.25
2023-03-21T20:25:15.877Z,20.17
2023-03-21T20:27:46.110Z,20.82
2023-03-21T20:30:18.991Z,21.97
2023-03-21T20:32:49.104Z,22.73
2023-03-21T20:35:32.944Z,22.80
2023-03-21T20:37:51.872Z,18.27
2023-03-21T20:40:24.818Z,18.62
2023-03-21T20:42:56.461Z,17.48
2023-03-21T20:45:25.966Z,18.77
2023-03-21T20:47:55.488Z,18.15
2023-03-21T20:50:27.754Z,18.77
2023-03-21T20:53:06.802Z,17.55
2023-03-21T20:55:28.499Z,22.40
2023-03-21T20:58:02.208Z,18.92
2023-03-21T21:00:32.251Z,21.95
2023-03-21T21:03:02.576Z,26.10
2023-03-21T21:05:34.848Z,26.25
2023-03-21T21:08:05.919Z,30.55
2023-03-21T21:10:52.408Z,30.02
2023-03-21T21:13:08.483Z,33.53
2023-03-21T21:15:38.038Z,42.38
2023-03-21T21:18:08.297Z,51.13
2023-03-21T21:20:39.167Z,53.75
2023-03-21T21:23:09.564Z,46.15
2023-03-21T21:25:39.646Z,48.87
2023-03-21T21:28:09.432Z,48.00
2023-03-21T21:30:41.959Z,45.03
2023-03-21T21:33:13.381Z,38.42
2023-03-21T21:35:44.775Z,40.58
2023-03-21T21:38:17.631Z,46.77
2023-03-21T21:40:49.004Z,45.13
2023-03-21T21:43:21.642Z,39.13
2023-03-21T21:45:52.079Z,43.15
2023-03-21T21:48:21.775Z,38.13
2023-03-21T21:50:54.609Z,41.37
2023-03-21T21:53:24.123Z,33.83
2023-03-21T21:55:54.324Z,36.70
2023-03-21T21:58:26.173Z,32.90
2023-03-21T22:01:01.899Z,31.57
2023-03-21T22:03:33.525Z,32.40
2023-03-21T22:06:04.840Z,30.37
2023-03-21T22:08:34.483Z,28.40
2023-03-21T22:11:05.146Z,29.67
2023-03-21T22:13:34.651Z,27.10
2023-03-21T22:16:04.212Z,32.08
2023-03-21T22:18:38.013Z,28.62
2023-03-21T22:21:08.109Z,32.13
2023-03-21T22:23:37.706Z,30.12
2023-03-21T22:26:07.839Z,32.73
2023-03-21T22:28:40.164Z,32.55
2023-03-21T22:31:18.913Z,31.07
2023-03-21T22:33:48.917Z,29.65
2023-03-21T22:36:18.345Z,32.78
2023-03-21T22:38:47.962Z,31.73
2023-03-21T22:41:17.377Z,30.77
2023-03-21T22:43:46.933Z,29.15
2023-03-21T22:46:16.689Z,28.42
2023-03-21T22:48:46.220Z,31.02
2023-03-21T22:51:15.840Z,29.37
2023-03-21T22:53:45.837Z,28.95
2023-03-21T22:56:16.937Z,29.12
2023-03-21T22:58:47.304Z,30.57
2023-03-21T23:01:16.781Z,28.50
2023-03-21T23:03:46.316Z,28.98
2023-03-21T23:06:16.838Z,31.60
2023-03-21T23:08:46.434Z,32.28
2023-03-21T23:11:15.969Z,28.70
2023-03-21T23:13:47.572Z,28.70
2023-03-21T23:16:17.357Z,28.20
2023-03-21T23:18:46.926Z,26.10
2023-03-21T23:21:18.596Z,23.57
2023-03-21T23:23:49.698Z,28.75
2023-03-21T23:26:22.240Z,29.23
2023-03-21T23:28:52.230Z,24.18
2023-03-21T23:31:24.193Z,24.67
2023-03-21T23:33:55.049Z,23.02
2023-03-21T23:36:24.516Z,21.97
2023-03-21T23:38:54.493Z,19.10
2023-03-21T23:41:26.021Z,30.57
2023-03-21T23:43:55.672Z,21.37
2023-03-21T23:46:25.443Z,27.15
2023-03-21T23:48:55.017Z,21.97
2023-03-21T23:51:24.461Z,21.80
2023-03-21T23:53:55.659Z,21.40
2023-03-21T23:56:27.477Z,27.75
2023-03-21T23:58:59.091Z,21.03
